createdAt,value
2018-08-28T00:01:38.323Z,2.10
2018-08-28T00:04:07.394Z,2.00
2018-08-28T00:06:36.323Z,1.87
2018-08-28T00:09:05.610Z,2.03
2018-08-28T00:11:34.564Z,1.93
2018-08-28T00:14:03.502Z,2.00
2018-08-28T00:16:32.398Z,1.80
2018-08-28T00:19:01.299Z,2.10
2018-08-28T00:21:30.158Z,2.10
2018-08-28T00:23:58.944Z,2.00
2018-08-28T00:26:27.859Z,2.40
2018-08-28T00:28:56.681Z,2.10
2018-08-28T00:31:25.815Z,2.00
2018-08-28T00:33:54.804Z,2.23
2018-08-28T00:36:23.725Z,2.40
2018-08-28T00:38:52.672Z,2.10
2018-08-28T00:41:21.677Z,2.00
2018-08-28T00:43:50.733Z,2.40
2018-08-28T00:46:19.579Z,2.10
2018-08-28T00:48:48.541Z,2.30
2018-08-28T00:51:17.395Z,2.30
2018-08-28T00:53:46.243Z,2.00
2018-08-28T00:56:15.175Z,2.30
2018-08-28T00:58:44.038Z,2.20
2018-08-28T01:01:12.905Z,2.20
2018-08-28T01:03:41.816Z,2.57
2018-08-28T01:06:10.755Z,2.47
2018-08-28T01:09:17.939Z,2.20
2018-08-28T01:11:46.512Z,2.30
2018-08-28T01:14:15.125Z,2.30
2018-08-28T01:16:43.693Z,2.77
2018-08-28T01:19:12.288Z,2.33
2018-08-28T01:21:40.842Z,2.50
2018-08-28T01:24:09.478Z,2.60
2018-08-28T01:26:37.971Z,2.60
2018-08-28T01:29:06.583Z,2.60
2018-08-28T01:31:35.285Z,2.50
2018-08-28T01:34:03.862Z,2.50
2018-08-28T01:36:32.419Z,2.37
2018-08-28T01:39:01.462Z,2.67
2018-08-28T01:41:30.459Z,2.33
2018-08-28T01:43:59.645Z,2.87
2018-08-28T01:46:28.470Z,2.80
2018-08-28T01:48:57.263Z,2.57
2018-08-28T01:51:26.113Z,2.63
2018-08-28T01:53:54.907Z,2.80
2018-08-28T01:56:23.745Z,2.90
2018-08-28T01:58:52.745Z,2.45
2018-08-28T02:01:21.579Z,2.53
2018-08-28T02:03:50.453Z,3.30
2018-08-28T02:06:19.422Z,2.97
2018-08-28T02:08:49.016Z,3.20
2018-08-28T02:11:17.991Z,2.80
2018-08-28T02:13:46.829Z,3.00
2018-08-28T02:16:15.620Z,3.10
2018-08-28T02:18:44.519Z,2.80
2018-08-28T02:21:13.587Z,2.77
2018-08-28T02:23:42.431Z,2.70
2018-08-28T02:26:11.279Z,3.10
2018-08-28T02:28:40.639Z,2.70
2018-08-28T02:31:09.871Z,2.90
2018-08-28T02:33:39.004Z,3.30
2018-08-28T02:36:08.381Z,3.23
2018-08-28T02:38:37.489Z,3.40
2018-08-28T02:41:06.405Z,3.00
2018-08-28T02:43:36.191Z,3.10
2018-08-28T02:46:05.045Z,3.20
2018-08-28T02:48:34.151Z,2.93
2018-08-28T02:51:03.003Z,2.83
2018-08-28T02:53:31.771Z,2.90
2018-08-28T02:56:00.784Z,3.03
2018-08-28T02:58:29.622Z,3.30
2018-08-28T03:00:58.531Z,2.87
2018-08-28T03:03:27.477Z,3.40
2018-08-28T03:05:56.337Z,2.90
2018-08-28T03:08:25.381Z,3.00
2018-08-28T03:10:54.161Z,3.30
2018-08-28T03:13:23.028Z,3.17
2018-08-28T03:15:51.978Z,3.13
2018-08-28T03:18:20.924Z,2.97
2018-08-28T03:20:49.933Z,2.93
2018-08-28T03:23:18.819Z,3.27
2018-08-28T03:25:47.826Z,3.03
2018-08-28T03:28:16.681Z,3.30
2018-08-28T03:30:45.651Z,2.97
2018-08-28T03:33:14.508Z,3.40
2018-08-28T03:35:43.334Z,3.50
2018-08-28T03:38:12.123Z,3.47
2018-08-28T03:40:41.029Z,3.23
2018-08-28T03:43:09.983Z,3.70
2018-08-28T03:45:39.006Z,3.40
2018-08-28T03:48:07.998Z,3.50
2018-08-28T03:50:36.991Z,3.47
2018-08-28T03:53:06.475Z,3.13
2018-08-28T03:55:35.485Z,4.07
2018-08-28T03:58:04.447Z,3.83
2018-08-28T04:00:33.335Z,3.63
2018-08-28T04:03:02.556Z,4.53
2018-08-28T04:05:31.510Z,4.23
2018-08-28T04:08:00.335Z,4.50
2018-08-28T04:10:29.240Z,4.40
2018-08-28T04:12:58.284Z,4.13
2018-08-28T04:15:27.254Z,4.00
2018-08-28T04:17:56.096Z,4.00
2018-08-28T04:20:25.456Z,4.40
2018-08-28T04:22:54.426Z,3.73
2018-08-28T04:25:23.330Z,4.50
2018-08-28T04:27:52.698Z,4.30
2018-08-28T04:30:21.553Z,4.40
2018-08-28T04:32:50.290Z,4.07
2018-08-28T04:35:19.094Z,4.00
2018-08-28T04:37:48.440Z,4.40
2018-08-28T04:40:17.389Z,4.30
2018-08-28T04:42:46.264Z,4.53
2018-08-28T04:45:15.783Z,6.40
2018-08-28T04:47:44.514Z,5.33
2018-08-28T04:50:13.381Z,6.53
2018-08-28T04:52:42.312Z,5.90
2018-08-28T04:55:12.319Z,6.53
2018-08-28T04:57:41.095Z,5.93
2018-08-28T05:00:10.001Z,5.50
2018-08-28T05:02:38.907Z,6.07
2018-08-28T05:05:09.697Z,7.37
2018-08-28T05:07:38.589Z,6.60
2018-08-28T05:10:07.787Z,6.30
2018-08-28T05:12:36.746Z,6.20
2018-08-28T05:15:06.082Z,8.03
2018-08-28T05:17:35.053Z,5.90
2018-08-28T05:20:04.019Z,6.00
2018-08-28T05:22:32.949Z,6.30
2018-08-28T05:25:01.825Z,6.37
2018-08-28T05:27:31.155Z,5.77
2018-08-28T05:30:00.159Z,6.37
2018-08-28T05:32:29.113Z,6.20
2018-08-28T05:34:59.072Z,6.87
2018-08-28T05:37:28.031Z,6.33
2018-08-28T05:39:59.088Z,6.62
2018-08-28T05:42:33.655Z,5.90
2018-08-28T05:45:02.486Z,6.53
2018-08-28T05:47:31.337Z,6.50
2018-08-28T05:50:00.122Z,5.97
2018-08-28T05:52:29.457Z,6.97
2018-08-28T05:54:58.387Z,6.30
2018-08-28T05:57:27.214Z,5.70
2018-08-28T05:59:56.877Z,6.57
2018-08-28T06:02:25.747Z,5.33
2018-08-28T06:04:54.843Z,6.33
2018-08-28T06:07:23.683Z,6.00
2018-08-28T06:09:52.539Z,6.20
2018-08-28T06:12:22.006Z,5.40
2018-08-28T06:14:50.940Z,6.07
2018-08-28T06:17:19.822Z,6.47
2018-08-28T06:19:48.692Z,7.13
2018-08-28T06:22:17.501Z,5.83
2018-08-28T06:24:46.506Z,7.17
2018-08-28T06:27:15.669Z,7.17
2018-08-28T06:29:44.484Z,8.13
2018-08-28T06:32:13.278Z,7.27
2018-08-28T06:34:42.217Z,8.23
2018-08-28T06:37:11.070Z,8.57
2018-08-28T06:39:39.900Z,7.70
2018-08-28T06:42:08.761Z,7.77
2018-08-28T06:44:37.790Z,8.00
2018-08-28T06:47:06.772Z,7.67
2018-08-28T06:49:35.782Z,7.07
2018-08-28T06:52:04.576Z,8.13
2018-08-28T06:54:33.494Z,8.00
2018-08-28T06:57:02.653Z,8.30
2018-08-28T06:59:31.432Z,7.30
2018-08-28T07:02:00.433Z,8.20
2018-08-28T07:04:29.303Z,7.30
2018-08-28T07:06:58.489Z,8.20
2018-08-28T07:09:27.462Z,6.28
2018-08-28T07:11:56.550Z,6.50
2018-08-28T07:14:25.373Z,6.87
2018-08-28T07:16:54.319Z,6.57
2018-08-28T07:19:23.437Z,6.43
2018-08-28T07:21:52.719Z,6.13
2018-08-28T07:24:21.650Z,5.63
2018-08-28T07:26:50.733Z,6.10
2018-08-28T07:29:20.118Z,6.43
2018-08-28T07:31:49.715Z,5.43
2018-08-28T07:34:18.451Z,5.70
2018-08-28T07:36:47.308Z,5.43
2018-08-28T07:39:16.330Z,5.97
2018-08-28T07:41:45.384Z,5.67
2018-08-28T07:44:14.319Z,5.57
2018-08-28T07:46:43.374Z,6.10
2018-08-28T07:49:12.248Z,6.50
2018-08-28T07:51:41.108Z,5.87
2018-08-28T07:54:10.020Z,7.13
2018-08-28T07:56:38.862Z,5.17
2018-08-28T07:59:07.772Z,5.93
2018-08-28T08:01:36.658Z,5.40
2018-08-28T08:04:06.314Z,5.23
2018-08-28T08:06:35.156Z,6.30
2018-08-28T08:09:04.312Z,6.13
2018-08-28T08:11:33.620Z,5.63
2018-08-28T08:14:02.493Z,4.93
2018-08-28T08:16:31.300Z,5.43
2018-08-28T08:19:00.129Z,5.33
2018-08-28T08:21:28.967Z,4.73
2018-08-28T08:23:57.830Z,5.03
2018-08-28T08:26:27.042Z,5.50
2018-08-28T08:28:55.836Z,5.53
2018-08-28T08:31:24.786Z,4.83
2018-08-28T08:33:53.629Z,5.10
2018-08-28T08:36:22.701Z,5.40
2018-08-28T08:38:51.520Z,5.73
2018-08-28T08:41:20.273Z,5.83
2018-08-28T08:43:49.486Z,5.37
2018-08-28T08:46:18.735Z,4.70
2018-08-28T08:48:47.647Z,4.60
2018-08-28T08:51:16.671Z,5.30
2018-08-28T08:53:45.612Z,5.50
2018-08-28T08:56:17.804Z,8.37
2018-08-28T08:58:46.702Z,8.50
2018-08-28T09:01:15.563Z,6.27
2018-08-28T09:03:44.316Z,5.13
2018-08-28T09:06:13.362Z,4.93
2018-08-28T09:08:42.358Z,5.20
2018-08-28T09:11:11.300Z,4.70
2018-08-28T09:13:40.276Z,4.93
2018-08-28T09:16:09.296Z,5.70
2018-08-28T09:18:38.267Z,5.17
2018-08-28T09:21:07.144Z,4.60
2018-08-28T09:23:36.172Z,5.10
2018-08-28T09:26:05.483Z,4.97
2018-08-28T09:28:34.477Z,5.27
2018-08-28T09:31:03.344Z,5.55
2018-08-28T09:33:32.144Z,4.60
2018-08-28T09:36:01.026Z,5.57
2018-08-28T09:38:30.324Z,5.10
2018-08-28T09:40:59.190Z,4.57
2018-08-28T09:43:28.065Z,5.27
2018-08-28T09:45:56.884Z,4.87
2018-08-28T09:48:25.795Z,4.90
2018-08-28T09:50:54.665Z,4.40
2018-08-28T09:53:23.586Z,5.30
2018-08-28T09:55:52.330Z,5.40
2018-08-28T09:58:21.188Z,4.87
2018-08-28T10:00:55.333Z,4.90
2018-08-28T10:03:24.462Z,4.53
2018-08-28T10:05:53.455Z,4.37
2018-08-28T10:08:22.375Z,4.50
2018-08-28T10:10:51.334Z,4.63
2018-08-28T10:13:20.145Z,4.47
2018-08-28T10:15:49.117Z,5.17
2018-08-28T10:18:17.891Z,4.63
2018-08-28T10:20:46.721Z,4.13
2018-08-28T10:23:15.725Z,4.80
2018-08-28T10:25:44.611Z,5.00
2018-08-28T10:28:13.510Z,4.50
2018-08-28T10:30:42.308Z,4.43
2018-08-28T10:33:11.157Z,4.57
2018-08-28T10:35:40.189Z,4.77
2018-08-28T10:38:09.126Z,4.60
2018-08-28T10:40:38.058Z,4.80
2018-08-28T10:43:07.025Z,4.50
2018-08-28T10:45:36.127Z,4.67
2018-08-28T10:48:05.379Z,5.10
2018-08-28T10:50:34.495Z,4.90
2018-08-28T10:53:03.488Z,4.97
2018-08-28T10:55:32.365Z,5.00
2018-08-28T10:58:01.252Z,5.67
2018-08-28T11:00:30.201Z,6.53
2018-08-28T11:02:59.132Z,4.60
2018-08-28T11:05:28.063Z,5.10
2018-08-28T11:07:57.020Z,4.97
2018-08-28T11:10:25.950Z,5.47
2018-08-28T11:12:54.783Z,4.60
2018-08-28T11:15:23.561Z,5.23
2018-08-28T11:17:52.366Z,4.50
2018-08-28T11:20:21.317Z,4.25
2018-08-28T11:22:50.500Z,4.23
2018-08-28T11:25:19.390Z,5.13
2018-08-28T11:27:48.211Z,4.03
2018-08-28T11:30:17.151Z,5.27
2018-08-28T11:32:46.067Z,4.12
2018-08-28T11:35:14.942Z,4.97
2018-08-28T11:37:43.841Z,5.33
2018-08-28T11:40:12.801Z,5.30
2018-08-28T11:42:41.709Z,4.83
2018-08-28T11:45:10.617Z,4.47
2018-08-28T11:47:39.451Z,4.83
2018-08-28T11:50:09.025Z,4.80
2018-08-28T11:52:38.209Z,4.60
2018-08-28T11:55:07.389Z,4.53
2018-08-28T11:57:36.262Z,4.43
2018-08-28T12:00:05.277Z,4.37
2018-08-28T12:02:34.577Z,4.97
2018-08-28T12:05:03.545Z,4.57
2018-08-28T12:07:32.434Z,4.23
2018-08-28T12:10:01.183Z,4.33
2018-08-28T12:12:30.063Z,4.70
2018-08-28T12:14:59.002Z,4.70
2018-08-28T12:17:27.925Z,4.73
2018-08-28T12:19:56.853Z,4.45
2018-08-28T12:22:25.723Z,4.50
2018-08-28T12:24:54.606Z,4.58
2018-08-28T12:27:23.611Z,5.05
2018-08-28T12:29:52.710Z,4.78
2018-08-28T12:32:21.586Z,4.78
2018-08-28T12:34:50.476Z,5.08
2018-08-28T12:37:19.295Z,5.28
2018-08-28T12:39:48.170Z,5.15
2018-08-28T12:42:17.228Z,4.70
2018-08-28T12:44:47.493Z,4.95
2018-08-28T12:47:16.365Z,5.00
2018-08-28T12:49:45.240Z,5.80
2018-08-28T12:52:14.072Z,5.17
2018-08-28T12:54:43.066Z,4.53
2018-08-28T12:57:11.823Z,5.17
2018-08-28T12:59:40.715Z,5.87
2018-08-28T13:02:09.652Z,5.20
2018-08-28T13:04:38.443Z,4.97
2018-08-28T13:07:07.747Z,4.92
2018-08-28T13:09:36.631Z,4.70
2018-08-28T13:12:05.560Z,4.92
2018-08-28T13:14:34.517Z,5.10
2018-08-28T13:17:03.633Z,5.28
2018-08-28T13:19:32.579Z,4.90
2018-08-28T13:22:01.453Z,4.35
2018-08-28T13:24:30.285Z,4.55
2018-08-28T13:26:59.367Z,4.58
2018-08-28T13:29:28.239Z,4.92
2018-08-28T13:31:57.393Z,5.37
2018-08-28T13:34:26.541Z,4.40
2018-08-28T13:36:55.348Z,4.62
2018-08-28T13:39:24.140Z,5.08
2018-08-28T13:41:52.995Z,4.80
2018-08-28T13:44:21.988Z,4.62
2018-08-28T13:46:50.814Z,4.90
2018-08-28T13:49:19.539Z,4.20
2018-08-28T13:51:48.339Z,4.58
2018-08-28T13:54:17.704Z,5.05
2018-08-28T13:56:46.361Z,4.92
2018-08-28T13:59:15.192Z,4.62
2018-08-28T14:01:44.049Z,3.67
2018-08-28T14:04:12.913Z,4.87
2018-08-28T14:06:41.838Z,4.60
2018-08-28T14:09:11.513Z,4.62
2018-08-28T14:11:40.453Z,4.90
2018-08-28T14:14:09.292Z,4.85
2018-08-28T14:16:39.007Z,4.83
2018-08-28T14:19:07.960Z,4.25
2018-08-28T14:21:37.045Z,4.60
2018-08-28T14:24:06.565Z,5.12
2018-08-28T14:26:35.385Z,4.78
2018-08-28T14:29:04.348Z,4.87
2018-08-28T14:31:33.176Z,4.67
2018-08-28T14:34:01.977Z,4.50
2018-08-28T14:36:30.782Z,4.50
2018-08-28T14:38:59.580Z,4.40
2018-08-28T14:41:28.530Z,4.90
2018-08-28T14:43:57.464Z,4.53
2018-08-28T14:46:27.082Z,4.97
2018-08-28T14:48:56.215Z,4.62
2018-08-28T14:51:25.130Z,4.97
2018-08-28T14:53:53.961Z,5.22
2018-08-28T14:56:22.711Z,4.77
2018-08-28T14:58:51.605Z,4.62
2018-08-28T15:01:20.492Z,4.90
2018-08-28T15:03:49.398Z,4.37
2018-08-28T15:06:19.036Z,4.62
2018-08-28T15:08:47.970Z,5.15
2018-08-28T15:11:17.030Z,4.67
2018-08-28T15:13:45.882Z,5.45
2018-08-28T15:16:14.664Z,4.20
2018-08-28T15:18:43.569Z,4.22
2018-08-28T15:21:12.335Z,4.90
2018-08-28T15:23:41.279Z,4.78
2018-08-28T15:26:10.634Z,4.35
2018-08-28T15:28:51.314Z,4.55
2018-08-28T15:31:20.680Z,4.60
2018-08-28T15:33:50.131Z,4.58
2018-08-28T15:36:18.973Z,5.08
2018-08-28T15:38:48.155Z,4.97
2018-08-28T15:41:17.116Z,4.55
2018-08-28T15:43:46.147Z,4.72
2018-08-28T15:46:14.976Z,4.30
2018-08-28T15:48:43.825Z,4.70
2018-08-28T15:51:12.769Z,4.83
2018-08-28T15:53:42.016Z,4.65
2018-08-28T15:56:10.922Z,4.70
2018-08-28T15:58:40.024Z,4.72
2018-08-28T16:01:09.128Z,4.60
2018-08-28T16:03:37.978Z,4.67
2018-08-28T16:06:06.802Z,5.17
2018-08-28T16:08:35.996Z,4.70
2018-08-28T16:11:04.726Z,5.00
2018-08-28T16:13:33.537Z,4.90
2018-08-28T16:16:02.685Z,4.50
2018-08-28T16:18:31.570Z,4.60
2018-08-28T16:21:00.355Z,4.67
2018-08-28T16:23:34.047Z,5.03
2018-08-28T16:26:02.870Z,4.53
2018-08-28T16:28:31.805Z,4.70
2018-08-28T16:31:00.738Z,4.50
2018-08-28T16:33:29.617Z,4.70
2018-08-28T16:35:58.682Z,5.10
2018-08-28T16:38:27.438Z,4.70
2018-08-28T16:40:56.329Z,5.22
2018-08-28T16:43:25.173Z,4.60
2018-08-28T16:45:54.050Z,4.55
2018-08-28T16:48:22.950Z,5.20
2018-08-28T16:50:51.766Z,4.58
2018-08-28T16:53:20.571Z,5.25
2018-08-28T16:55:50.710Z,4.22
2018-08-28T16:58:19.755Z,4.35
2018-08-28T17:00:48.744Z,5.00
2018-08-28T17:03:18.531Z,4.20
2018-08-28T17:05:47.903Z,4.35
2018-08-28T17:08:16.994Z,4.35
2018-08-28T17:10:45.833Z,4.67
2018-08-28T17:13:14.826Z,4.85
2018-08-28T17:15:43.665Z,4.90
2018-08-28T17:18:12.704Z,4.80
2018-08-28T17:20:41.764Z,4.53
2018-08-28T17:23:10.611Z,4.30
2018-08-28T17:25:39.501Z,4.75
2018-08-28T17:28:08.296Z,4.63
2018-08-28T17:30:37.202Z,4.17
2018-08-28T17:33:06.456Z,4.43
2018-08-28T17:35:35.350Z,4.70
2018-08-28T17:38:04.241Z,4.57
2018-08-28T17:40:33.128Z,4.53
2018-08-28T17:43:02.099Z,4.17
2018-08-28T17:45:31.058Z,4.12
2018-08-28T17:48:00.283Z,4.20
2018-08-28T17:50:29.198Z,4.93
2018-08-28T17:52:58.350Z,4.57
2018-08-28T18:00:21.129Z,4.70
2018-08-28T18:02:49.628Z,4.60
2018-08-28T18:05:18.369Z,4.27
2018-08-28T18:07:46.939Z,4.30
2018-08-28T18:10:15.971Z,4.70
2018-08-28T18:12:44.543Z,4.43
2018-08-28T18:15:13.102Z,4.60
2018-08-28T18:17:41.818Z,4.50
2018-08-28T18:20:10.598Z,4.10
2018-08-28T18:22:39.233Z,4.33
2018-08-28T18:25:07.730Z,4.20
2018-08-28T18:27:36.509Z,4.20
2018-08-28T18:30:05.137Z,4.37
2018-08-28T18:32:34.185Z,4.10
2018-08-28T18:35:02.925Z,4.80
2018-08-28T18:37:31.715Z,4.43
2018-08-28T18:40:00.287Z,4.30
2018-08-28T18:42:29.229Z,3.90
2018-08-28T18:44:57.972Z,3.50
2018-08-28T18:47:26.550Z,2.90
2018-08-28T18:49:55.140Z,4.00
2018-08-28T18:52:23.701Z,4.70
2018-08-28T18:54:52.253Z,5.43
2018-08-28T18:57:20.749Z,5.00
2018-08-28T18:59:49.374Z,4.87
2018-08-28T19:02:17.917Z,4.70
2018-08-28T19:04:46.400Z,5.40
2018-08-28T19:07:14.919Z,5.30
2018-08-28T19:09:43.445Z,4.27
2018-08-28T19:12:11.987Z,4.40
2018-08-28T19:14:40.611Z,3.23
2018-08-28T19:17:09.048Z,4.40
2018-08-28T19:19:37.571Z,4.00
2018-08-28T19:22:06.045Z,3.93
2018-08-28T19:24:34.553Z,3.80
2018-08-28T19:27:03.129Z,3.93
2018-08-28T19:29:31.659Z,4.00
2018-08-28T19:32:00.250Z,4.50
2018-08-28T19:34:28.889Z,3.70
2018-08-28T19:36:57.357Z,4.10
2018-08-28T19:39:25.961Z,4.10
2018-08-28T19:41:54.514Z,3.93
2018-08-28T19:44:23.127Z,4.23
2018-08-28T19:46:51.866Z,4.20
2018-08-28T19:49:20.612Z,3.83
2018-08-28T19:51:49.623Z,3.93
2018-08-28T19:54:18.116Z,4.17
2018-08-28T19:56:46.766Z,4.10
2018-08-28T19:59:15.187Z,4.27
2018-08-28T20:01:43.962Z,3.80
2018-08-28T20:04:12.484Z,4.83
2018-08-28T20:06:40.947Z,4.30
2018-08-28T20:09:09.472Z,4.57
2018-08-28T20:11:37.997Z,4.37
2018-08-28T20:14:06.740Z,4.50
2018-08-28T20:16:35.329Z,4.40
2018-08-28T20:19:03.832Z,4.43
2018-08-28T20:21:32.319Z,5.20
2018-08-28T20:24:00.869Z,4.30
2018-08-28T20:26:29.724Z,4.80
2018-08-28T20:28:58.523Z,4.10
2018-08-28T20:31:27.443Z,4.20
2018-08-28T20:33:56.332Z,4.20
2018-08-28T20:36:25.262Z,5.03
2018-08-28T20:38:54.206Z,4.57
2018-08-28T20:41:23.309Z,4.60
2018-08-28T20:43:52.186Z,5.00
2018-08-28T20:46:21.119Z,5.00
2018-08-28T20:48:50.048Z,5.20
2018-08-28T20:51:18.981Z,4.77
2018-08-28T20:53:47.840Z,4.80
2018-08-28T20:56:16.855Z,4.77
2018-08-28T20:58:45.711Z,5.10
2018-08-28T21:01:14.502Z,5.67
2018-08-28T21:03:43.433Z,5.60
2018-08-28T21:06:12.355Z,6.10
2018-08-28T21:08:41.328Z,5.72
2018-08-28T21:11:10.231Z,5.30
2018-08-28T21:13:39.154Z,5.80
2018-08-28T21:16:08.059Z,5.27
2018-08-28T21:18:36.902Z,5.77
2018-08-28T21:21:06.011Z,4.87
2018-08-28T21:23:34.918Z,5.03
2018-08-28T21:26:03.801Z,5.00
2018-08-28T21:29:12.732Z,5.27
2018-08-28T21:31:41.635Z,5.00
2018-08-28T21:34:10.631Z,4.83
2018-08-28T21:36:39.517Z,5.30
2018-08-28T21:39:08.345Z,4.67
2018-08-28T21:41:37.293Z,4.70
2018-08-28T21:44:11.647Z,5.00
2018-08-28T21:46:40.760Z,5.00
2018-08-28T21:49:09.611Z,5.00
2018-08-28T21:51:38.767Z,5.00
2018-08-28T21:54:07.875Z,4.73
2018-08-28T21:56:36.831Z,5.33
2018-08-28T21:59:05.778Z,5.10
2018-08-28T22:01:34.833Z,5.50
2018-08-28T22:04:03.905Z,5.63
2018-08-28T22:06:37.939Z,5.57
2018-08-28T22:09:07.253Z,5.30
2018-08-28T22:11:36.629Z,4.77
2018-08-28T22:14:05.767Z,5.20
2018-08-28T22:16:34.616Z,5.13
2018-08-28T22:19:03.582Z,5.20
2018-08-28T22:21:32.612Z,4.70
2018-08-28T22:24:09.739Z,5.80
2018-08-28T22:26:38.557Z,5.50
2018-08-28T22:29:07.410Z,5.60
2018-08-28T22:31:36.365Z,6.33
2018-08-28T22:34:05.341Z,5.67
2018-08-28T22:36:34.935Z,5.37
2018-08-28T22:39:04.324Z,5.20
2018-08-28T22:41:33.340Z,5.50
2018-08-28T22:44:02.635Z,5.57
2018-08-28T22:46:31.465Z,5.63
2018-08-28T22:49:00.382Z,5.60
2018-08-28T22:51:29.366Z,5.83
2018-08-28T22:53:58.350Z,5.80
2018-08-28T22:56:27.551Z,5.80
2018-08-28T22:58:56.348Z,5.80
2018-08-28T23:01:25.162Z,6.40
2018-08-28T23:03:54.158Z,6.60
2018-08-28T23:06:22.976Z,6.17
2018-08-28T23:08:52.504Z,6.30
2018-08-28T23:11:21.389Z,6.20
2018-08-28T23:13:50.331Z,5.87
2018-08-28T23:16:19.263Z,6.03
2018-08-28T23:18:48.592Z,5.93
2018-08-28T23:21:17.575Z,5.67
2018-08-28T23:23:46.357Z,6.50
2018-08-28T23:26:15.211Z,5.87
2018-08-28T23:28:44.142Z,6.43
2018-08-28T23:31:13.017Z,5.90
2018-08-28T23:33:42.023Z,6.10
2018-08-28T23:36:10.860Z,6.43
2018-08-28T23:38:39.687Z,6.20
2018-08-28T23:41:08.518Z,5.47
2018-08-28T23:43:37.722Z,6.27
2018-08-28T23:46:06.637Z,6.60
2018-08-28T23:48:35.543Z,6.77
2018-08-28T23:51:04.464Z,6.77
2018-08-28T23:53:33.558Z,6.90
2018-08-28T23:56:02.565Z,7.00
2018-08-28T23:58:31.329Z,6.23
